createdAt,value
2022-12-01T00:00:16.285Z,-9.57
2022-12-01T00:05:18.326Z,-9.36
2022-12-01T00:10:26.555Z,-9.36
2022-12-01T00:15:31.650Z,-9.34
2022-12-01T00:20:35.255Z,-9.39
2022-12-01T00:25:37.381Z,-9.38
2022-12-01T00:30:39.412Z,-9.51
2022-12-01T00:35:41.456Z,-9.45
2022-12-01T00:40:43.559Z,-9.47
2022-12-01T00:45:45.771Z,-9.49
2022-12-01T00:50:48.238Z,-9.50
2022-12-01T00:55:50.487Z,-9.53
2022-12-01T01:01:01.181Z,-9.52
2022-12-01T01:06:06.395Z,-9.55
2022-12-01T01:11:09.550Z,-9.62
2022-12-01T01:16:18.218Z,-9.61
2022-12-01T01:21:22.204Z,-9.66
2022-12-01T01:26:27.441Z,-9.66
2022-12-01T01:31:31.453Z,-9.86
2022-12-01T01:36:33.545Z,-9.70
2022-12-01T01:41:35.579Z,-9.74
2022-12-01T01:46:37.892Z,-9.76
2022-12-01T01:51:58.274Z,-9.74
2022-12-01T01:57:01.948Z,-10.01
2022-12-01T02:02:06.915Z,-9.77
2022-12-01T02:07:11.488Z,-9.77
2022-12-01T02:12:16.677Z,-9.76
2022-12-01T02:17:41.834Z,-9.75
2022-12-01T02:23:13.100Z,-9.81
2022-12-01T02:28:52.622Z,-9.78
2022-12-01T02:34:01.977Z,-9.83
2022-12-01T02:39:17.350Z,-10.00
2022-12-01T02:44:32.549Z,-9.84
2022-12-01T02:49:40.408Z,-9.88
2022-12-01T02:54:45.827Z,-9.92
2022-12-01T02:59:53.689Z,-10.12
2022-12-01T03:05:04.650Z,-10.19
2022-12-01T03:10:16.112Z,-9.95
2022-12-01T03:15:32.245Z,-9.94
2022-12-01T03:20:57.901Z,-9.96
2022-12-01T03:26:03.964Z,-9.98
2022-12-01T03:31:10.008Z,-10.12
2022-12-01T03:36:38.109Z,-9.99
2022-12-01T03:41:45.709Z,-10.02
2022-12-01T03:46:54.105Z,-10.22
2022-12-01T03:51:59.052Z,-10.06
2022-12-01T03:57:06.305Z,-10.08
2022-12-01T04:02:08.862Z,-10.13
2022-12-01T04:07:13.609Z,-10.13
2022-12-01T04:12:31.069Z,-10.12
2022-12-01T04:17:33.152Z,-10.12
2022-12-01T04:22:35.180Z,-10.10
2022-12-01T04:27:38.085Z,-10.08
2022-12-01T04:32:42.046Z,-10.09
2022-12-01T04:37:44.111Z,-10.07
2022-12-01T04:42:46.183Z,-10.15
2022-12-01T04:47:53.080Z,-10.06
2022-12-01T04:52:55.304Z,-10.10
2022-12-01T04:57:58.183Z,-10.06
2022-12-01T05:03:00.810Z,-10.04
2022-12-01T05:08:03.002Z,-10.08
2022-12-01T05:13:05.916Z,-10.04
2022-12-01T05:18:07.965Z,-10.03
2022-12-01T05:23:16.362Z,-10.09
2022-12-01T05:28:19.558Z,-10.01
2022-12-01T05:33:23.393Z,-9.96
2022-12-01T05:38:25.504Z,-10.02
2022-12-01T05:43:29.582Z,-9.82
2022-12-01T05:48:32.201Z,-9.84
2022-12-01T05:53:34.267Z,-9.60
2022-12-01T05:58:36.603Z,-9.52
2022-12-01T06:03:38.698Z,-9.34
2022-12-01T06:08:40.753Z,-9.14
2022-12-01T06:13:42.795Z,-8.93
2022-12-01T06:18:44.873Z,-8.73
2022-12-01T06:23:46.979Z,-8.53
2022-12-01T06:28:49.036Z,-8.31
2022-12-01T06:33:51.081Z,-8.09
2022-12-01T06:38:53.070Z,-7.79
2022-12-01T06:43:55.110Z,-7.45
2022-12-01T06:48:57.338Z,-7.15
2022-12-01T06:54:05.066Z,-6.05
2022-12-01T06:59:07.662Z,-5.09
2022-12-01T07:04:09.828Z,-4.37
2022-12-01T07:09:11.852Z,-3.59
2022-12-01T07:14:23.417Z,-2.70
2022-12-01T07:19:25.622Z,-2.09
2022-12-01T07:24:27.692Z,-1.88
2022-12-01T07:29:29.700Z,-1.91
2022-12-01T07:34:31.720Z,-1.77
2022-12-01T07:39:33.754Z,-1.32
2022-12-01T07:44:35.757Z,-0.17
2022-12-01T07:49:38.167Z,1.07
2022-12-01T07:54:41.286Z,1.87
2022-12-01T07:59:43.441Z,2.08
2022-12-01T08:04:45.515Z,1.87
2022-12-01T08:09:47.859Z,1.39
2022-12-01T08:14:50.233Z,1.26
2022-12-01T08:19:52.354Z,1.55
2022-12-01T08:24:54.440Z,1.61
2022-12-01T08:29:56.456Z,1.68
2022-12-01T08:34:58.479Z,1.95
2022-12-01T08:40:00.625Z,1.95
2022-12-01T08:45:02.872Z,2.39
2022-12-01T08:50:06.612Z,3.23
2022-12-01T08:55:09.420Z,4.59
2022-12-01T09:00:12.554Z,5.83
2022-12-01T09:05:14.743Z,6.85
2022-12-01T09:10:16.984Z,7.26
2022-12-01T09:15:19.039Z,6.75
2022-12-01T09:20:21.043Z,7.21
2022-12-01T09:25:23.193Z,5.69
2022-12-01T09:30:25.046Z,5.67
2022-12-01T09:35:27.337Z,3.39
2022-12-01T09:40:43.300Z,2.10
2022-12-01T09:45:51.760Z,0.93
2022-12-01T09:50:54.414Z,0.40
2022-12-01T09:56:02.544Z,-0.13
2022-12-01T10:01:17.987Z,-0.31
2022-12-01T10:06:29.771Z,-0.23
2022-12-01T10:11:36.181Z,-0.05
2022-12-01T10:16:49.349Z,0.31
2022-12-01T10:22:26.983Z,0.76
2022-12-01T10:27:38.560Z,0.45
2022-12-01T10:33:15.860Z,0.43
2022-12-01T10:38:30.786Z,-0.04
2022-12-01T10:43:44.217Z,-0.26
2022-12-01T10:48:57.858Z,0.40
2022-12-01T10:54:11.527Z,2.22
2022-12-01T10:59:27.150Z,4.02
2022-12-01T11:04:29.170Z,5.50
2022-12-01T11:09:31.512Z,7.57
2022-12-01T11:14:37.294Z,8.29
2022-12-01T11:19:39.394Z,7.52
2022-12-01T11:24:55.773Z,5.79
2022-12-01T11:30:10.375Z,3.67
2022-12-01T11:35:21.637Z,2.08
2022-12-01T11:40:46.223Z,1.16
2022-12-01T11:45:48.594Z,0.08
2022-12-01T11:51:02.036Z,-0.59
2022-12-01T11:56:13.094Z,-1.08
2022-12-01T12:01:22.247Z,-1.53
2022-12-01T12:06:41.426Z,-1.76
2022-12-01T12:12:23.312Z,-2.28
2022-12-01T12:17:34.094Z,-2.22
2022-12-01T12:22:58.826Z,-2.99
2022-12-01T12:28:25.535Z,-3.28
2022-12-01T12:33:37.895Z,-3.73
2022-12-01T12:39:01.138Z,-4.02
2022-12-01T12:44:30.024Z,-4.25
2022-12-01T12:49:49.334Z,-4.55
2022-12-01T12:54:57.326Z,-4.86
2022-12-01T13:00:14.594Z,-5.17
2022-12-01T13:05:49.517Z,-5.34
2022-12-01T13:11:06.811Z,-5.55
2022-12-01T13:16:19.303Z,-5.62
2022-12-01T13:21:24.113Z,-5.77
2022-12-01T13:26:26.541Z,-5.83
2022-12-01T13:31:28.710Z,-5.82
2022-12-01T13:36:48.434Z,-5.82
2022-12-01T13:42:07.330Z,-5.76
2022-12-01T13:47:12.383Z,-5.93
2022-12-01T13:52:23.355Z,-6.01
2022-12-01T13:57:31.839Z,-6.07
2022-12-01T14:02:35.882Z,-6.12
2022-12-01T14:07:38.932Z,-6.12
2022-12-01T14:12:45.712Z,-6.06
2022-12-01T14:17:53.772Z,-6.09
2022-12-01T14:23:15.078Z,-5.98
2022-12-01T14:28:17.553Z,-5.83
2022-12-01T14:33:48.042Z,-6.01
2022-12-01T14:38:59.153Z,-6.10
2022-12-01T14:44:10.891Z,-6.15
2022-12-01T14:49:17.983Z,-6.26
2022-12-01T14:54:29.096Z,-6.29
2022-12-01T14:59:31.560Z,-6.45
2022-12-01T15:04:34.485Z,-6.50
2022-12-01T15:09:36.673Z,-6.51
2022-12-01T15:14:47.516Z,-6.58
2022-12-01T15:19:51.038Z,-6.50
2022-12-01T15:24:53.378Z,-6.55
2022-12-01T15:29:58.399Z,-6.55
2022-12-01T15:35:05.498Z,-6.66
2022-12-01T15:40:54.483Z,-6.75
2022-12-01T15:45:42.778Z,-6.92
2022-12-01T15:50:58.961Z,-6.88
2022-12-01T15:56:05.086Z,-6.94
2022-12-01T16:01:14.533Z,-6.94
2022-12-01T16:06:18.103Z,-6.95
2022-12-01T16:11:22.088Z,-6.96
2022-12-01T16:16:45.892Z,-6.89
2022-12-01T16:21:49.323Z,-6.96
2022-12-01T16:27:00.463Z,-6.93
2022-12-01T16:32:21.339Z,-6.76
2022-12-01T16:37:24.028Z,-7.01
2022-12-01T16:42:27.561Z,-7.10
2022-12-01T16:47:31.933Z,-7.12
2022-12-01T16:52:44.249Z,-7.20
2022-12-01T16:57:47.223Z,-7.26
2022-12-01T17:02:50.119Z,-7.28
2022-12-01T17:07:52.341Z,-7.44
2022-12-01T17:12:55.207Z,-7.31
2022-12-01T17:17:57.400Z,-7.28
2022-12-01T17:22:59.924Z,-7.24
2022-12-01T17:28:02.135Z,-7.25
2022-12-01T17:33:04.412Z,-7.29
2022-12-01T17:38:06.643Z,-7.39
2022-12-01T17:43:08.747Z,-7.32
2022-12-01T17:48:11.279Z,-7.31
2022-12-01T17:53:13.323Z,-7.35
2022-12-01T17:58:18.191Z,-7.40
2022-12-01T18:03:21.446Z,-7.46
2022-12-01T18:08:25.681Z,-7.53
2022-12-01T18:13:29.797Z,-7.60
2022-12-01T18:18:31.996Z,-7.67
2022-12-01T18:23:34.954Z,-7.74
2022-12-01T18:28:37.343Z,-8.01
2022-12-01T18:33:41.857Z,-7.82
2022-12-01T18:38:44.517Z,-8.00
2022-12-01T18:43:47.097Z,-7.80
2022-12-01T18:48:54.432Z,-7.80
2022-12-01T18:53:58.475Z,-7.78
2022-12-01T18:59:03.755Z,-7.79
2022-12-01T19:04:08.781Z,-7.84
2022-12-01T19:09:13.057Z,-7.89
2022-12-01T19:14:17.627Z,-7.89
2022-12-01T19:19:21.354Z,-7.93
2022-12-01T19:24:23.515Z,-7.94
2022-12-01T19:29:25.870Z,-7.99
2022-12-01T19:34:28.132Z,-8.09
2022-12-01T19:39:30.548Z,-8.21
2022-12-01T19:44:33.138Z,-8.30
2022-12-01T19:49:35.635Z,-8.44
2022-12-01T19:54:37.927Z,-8.55
2022-12-01T19:59:40.116Z,-8.61
2022-12-01T20:04:43.660Z,-8.67
2022-12-01T20:09:49.885Z,-8.71
2022-12-01T20:14:52.885Z,-8.72
2022-12-01T20:19:55.408Z,-8.72
2022-12-01T20:24:57.507Z,-8.73
2022-12-01T20:29:59.688Z,-8.76
2022-12-01T20:35:02.047Z,-8.78
2022-12-01T20:40:06.333Z,-8.78
2022-12-01T20:45:08.487Z,-8.80
2022-12-01T20:50:10.871Z,-8.80
2022-12-01T20:55:13.106Z,-8.82
2022-12-01T21:00:15.798Z,-8.88
2022-12-01T21:05:18.147Z,-8.91
2022-12-01T21:10:20.776Z,-8.97
2022-12-01T21:15:28.870Z,-8.97
2022-12-01T21:20:36.064Z,-9.01
2022-12-01T21:25:39.949Z,-9.03
2022-12-01T21:30:42.197Z,-9.07
2022-12-01T21:35:44.448Z,-9.15
2022-12-01T21:40:47.076Z,-9.14
2022-12-01T21:45:56.241Z,-9.12
2022-12-01T21:51:01.849Z,-9.16
2022-12-01T21:56:04.277Z,-9.20
2022-12-01T22:01:23.318Z,-9.12
2022-12-01T22:06:30.567Z,-9.16
2022-12-01T22:11:32.900Z,-9.18
2022-12-01T22:16:47.235Z,-9.32
2022-12-01T22:29:00.193Z,-9.22
2022-12-01T22:34:03.496Z,-9.24
2022-12-01T22:39:26.658Z,-9.41
2022-12-01T22:44:30.940Z,-9.26
2022-12-01T22:49:34.267Z,-9.31
2022-12-01T22:54:43.584Z,-9.30
2022-12-01T22:59:47.851Z,-9.35
2022-12-01T23:04:56.967Z,-9.36
2022-12-01T23:10:19.368Z,-9.35
2022-12-01T23:15:45.014Z,-9.40
2022-12-01T23:20:55.384Z,-9.50
2022-12-01T23:25:58.617Z,-9.55
2022-12-01T23:31:00.829Z,-9.58
2022-12-01T23:36:07.350Z,-9.57
2022-12-01T23:41:33.568Z,-9.49
2022-12-01T23:46:36.575Z,-9.54
2022-12-01T23:51:44.232Z,-9.50
2022-12-01T23:56:57.052Z,-9.47
